Time;durP1;ratioP1;P1;durP2;ratioP2;P2;SDS_P1;SDS_P2;PMS_P1;PMS_P2;Temp;Humidity;BMP_temperature;BMP_pressure;BME280_temperature;BME280_humidity;BME280_pressure;Samples;Min_cycle;Max_cycle;Signal;HPM_P1;HPM_P2
2022/01/24 00:01:31;;;;;;;3.40;2.42;;;17.10;40.40;;;;;;5035329;28;20275;-55
2022/01/24 00:03:58;;;;;;;2.13;2.03;;;17.10;40.40;;;;;;5034929;28;20223;-55
2022/01/24 00:06:26;;;;;;;2.63;2.42;;;17.10;40.50;;;;;;5035102;28;20616;-56
2022/01/24 00:08:54;;;;;;;2.10;2.00;;;17.00;40.30;;;;;;5035096;28;20271;-56
2022/01/24 00:11:25;;;;;;;3.03;2.72;;;17.00;40.40;;;;;;5033353;28;20283;-56
2022/01/24 00:27:41;;;;;;;2.65;2.45;;;16.80;40.60;;;;;;5033824;28;20640;-56
2022/01/24 00:30:11;;;;;;;2.60;2.40;;;16.80;40.70;;;;;;5033080;28;20728;-56
2022/01/24 00:32:38;;;;;;;2.35;2.22;;;16.70;40.70;;;;;;5034084;28;20196;-55
2022/01/24 00:35:06;;;;;;;2.85;2.63;;;16.70;40.90;;;;;;5032790;28;20711;-55
2022/01/24 00:37:34;;;;;;;2.55;2.35;;;16.70;40.80;;;;;;5034199;28;20189;-55
2022/01/24 00:40:01;;;;;;;2.83;2.63;;;16.70;40.90;;;;;;5034123;28;20235;-55
2022/01/24 00:42:35;;;;;;;3.13;2.60;;;16.60;40.60;;;;;;5034488;28;20184;-55
2022/01/24 00:45:09;;;;;;;2.78;2.58;;;16.60;40.60;;;;;;5036478;28;20207;-55
2022/01/24 00:47:50;;;;;;;2.60;2.40;;;16.60;40.80;;;;;;5035962;28;20236;-56
2022/01/24 00:53:30;;;;;;;2.75;2.55;;;16.50;40.80;;;;;;5033773;28;20269;-56
2022/01/24 00:55:57;;;;;;;3.13;2.90;;;16.50;40.80;;;;;;5032466;28;20220;-55
2022/01/24 00:58:24;;;;;;;3.05;2.72;;;16.40;40.70;;;;;;5033608;28;20219;-56
2022/01/24 01:00:52;;;;;;;2.85;2.65;;;16.40;40.80;;;;;;5032661;28;20219;-55
2022/01/24 01:03:20;;;;;;;3.05;2.42;;;16.40;40.80;;;;;;5033500;28;20194;-55
2022/01/24 01:06:02;;;;;;;2.95;2.65;;;16.40;40.80;;;;;;5033395;28;20245;-56
2022/01/24 01:19:31;;;;;;;2.83;2.63;;;16.30;41.10;;;;;;5033276;28;20200;-56
2022/01/24 01:21:59;;;;;;;3.08;2.78;;;16.30;41.10;;;;;;5033092;28;20687;-55
2022/01/24 01:24:28;;;;;;;2.67;2.47;;;16.30;41.30;;;;;;5031716;28;20272;-56
2022/01/24 01:27:01;;;;;;;2.70;2.50;;;16.20;41.30;;;;;;5032947;28;20216;-55
2022/01/24 01:29:32;;;;;;;3.25;2.90;;;16.20;41.10;;;;;;5033073;28;20176;-56
2022/01/24 01:32:10;;;;;;;2.92;2.72;;;16.20;41.20;;;;;;5031769;28;20684;-56
2022/01/24 01:40:38;;;;;;;3.05;2.85;;;16.10;41.20;;;;;;5002277;28;20208;-55
2022/01/24 01:54:20;;;;;;;2.92;2.70;;;16.00;41.20;;;;;;5013261;28;20193;-64
2022/01/24 01:56:47;;;;;;;2.95;2.75;;;15.90;41.40;;;;;;5013218;28;20255;-64
2022/01/24 01:59:15;;;;;;;3.40;3.10;;;15.90;41.50;;;;;;5011853;28;20591;-64
2022/01/24 02:01:43;;;;;;;3.00;2.70;;;16.00;41.60;;;;;;5013227;28;20212;-64
2022/01/24 02:04:10;;;;;;;3.30;3.00;;;15.90;41.50;;;;;;5012229;28;20200;-63
2022/01/24 02:06:38;;;;;;;3.00;2.80;;;15.90;41.40;;;;;;5013236;28;20724;-64
2022/01/24 02:09:07;;;;;;;3.03;2.83;;;15.90;41.30;;;;;;5011916;28;20196;-64
2022/01/24 02:11:34;;;;;;;3.03;2.83;;;15.90;41.40;;;;;;5011654;28;20228;-64
2022/01/24 02:14:04;;;;;;;3.10;2.90;;;15.90;41.50;;;;;;5013078;28;20247;-64
2022/01/24 02:17:01;;;;;;;3.25;2.95;;;15.80;41.40;;;;;;5013239;28;20227;-64
2022/01/24 02:19:35;;;;;;;3.72;3.08;;;15.80;41.40;;;;;;5011547;28;20612;-64
2022/01/24 02:22:38;;;;;;;3.17;2.90;;;15.80;42.00;;;;;;5012028;28;20228;-64
2022/01/24 02:24:58;;;;;;;3.20;2.90;;;15.80;41.50;;;;;;5012891;28;20197;-64
2022/01/24 02:27:28;;;;;;;3.50;3.20;;;15.80;41.50;;;;;;5012979;28;20220;-64
2022/01/24 02:30:09;;;;;;;3.67;3.38;;;15.70;41.40;;;;;;5013217;28;20595;-64
2022/01/24 02:32:39;;;;;;;3.38;3.08;;;15.70;41.30;;;;;;5011468;28;20696;-64
2022/01/24 02:35:06;;;;;;;4.25;3.00;;;15.70;41.50;;;;;;5012908;28;20243;-64
2022/01/24 02:37:35;;;;;;;3.63;3.30;;;15.70;41.50;;;;;;5011289;28;20196;-64
2022/01/24 02:40:08;;;;;;;2.88;2.67;;;15.70;41.40;;;;;;5011789;28;20299;-65
2022/01/24 02:48:25;;;;;;;3.30;3.10;;;15.70;41.50;;;;;;5011354;28;20189;-65
2022/01/24 02:53:39;;;;;;;3.58;3.10;;;15.60;41.40;;;;;;5012538;28;20551;-65
2022/01/24 02:56:07;;;;;;;3.10;2.90;;;15.60;41.60;;;;;;5011291;28;20211;-65
2022/01/24 02:58:34;;;;;;;3.67;3.38;;;15.60;41.60;;;;;;5012438;28;20209;-65
2022/01/24 03:01:06;;;;;;;3.22;2.85;;;15.60;41.60;;;;;;5010945;28;20232;-65
2022/01/24 03:03:33;;;;;;;3.60;3.30;;;15.50;41.60;;;;;;5011336;28;20673;-65
2022/01/24 03:06:00;;;;;;;3.50;3.20;;;15.50;41.50;;;;;;5011275;28;20669;-65
2022/01/24 03:08:27;;;;;;;3.35;3.05;;;15.50;41.60;;;;;;5012645;28;20181;-64
2022/01/24 03:10:58;;;;;;;3.08;2.83;;;15.50;41.70;;;;;;5012409;28;20676;-64
2022/01/24 03:13:32;;;;;;;3.45;3.15;;;15.50;41.70;;;;;;5011286;28;20189;-64
2022/01/24 03:16:01;;;;;;;3.28;2.97;;;15.50;41.70;;;;;;5011640;28;20254;-64
2022/01/24 03:18:28;;;;;;;3.85;2.90;;;15.40;41.70;;;;;;5011062;28;20537;-63
2022/01/24 03:20:56;;;;;;;3.28;2.97;;;15.40;42.30;;;;;;5010906;28;20681;-64
2022/01/24 03:23:24;;;;;;;3.72;3.42;;;15.40;41.60;;;;;;5014149;28;20196;-64
2022/01/24 03:25:52;;;;;;;3.15;2.95;;;15.40;41.50;;;;;;5014875;28;20209;-64
2022/01/24 03:28:24;;;;;;;3.10;2.90;;;15.40;41.80;;;;;;5014714;28;20684;-64
2022/01/24 03:30:50;;;;;;;3.50;3.20;;;15.40;41.60;;;;;;5015963;28;20733;-64
2022/01/24 03:33:18;;;;;;;3.80;3.50;;;15.40;41.60;;;;;;5014825;28;20216;-64
2022/01/24 03:35:45;;;;;;;3.28;3.08;;;15.40;41.50;;;;;;5014660;28;20197;-64
2022/01/24 03:38:13;;;;;;;3.47;3.17;;;15.40;41.60;;;;;;5014477;28;20205;-64
2022/01/24 03:40:40;;;;;;;3.47;3.08;;;15.30;41.70;;;;;;5014410;28;20201;-64
2022/01/24 03:43:07;;;;;;;3.30;2.70;;;15.30;41.80;;;;;;5014540;28;20664;-64
2022/01/24 03:45:42;;;;;;;3.45;3.15;;;15.30;41.90;;;;;;5014334;28;20681;-64
2022/01/24 03:48:12;;;;;;;3.90;3.15;;;15.30;41.80;;;;;;5014222;28;20291;-64
2022/01/24 03:50:39;;;;;;;3.60;3.30;;;15.30;42.40;;;;;;5014158;28;20247;-64
2022/01/24 03:53:06;;;;;;;3.35;3.05;;;15.30;41.80;;;;;;5015352;28;20217;-64
2022/01/24 03:55:34;;;;;;;2.80;2.60;;;15.20;41.60;;;;;;5015468;28;20212;-64
2022/01/24 03:58:01;;;;;;;3.22;2.95;;;15.20;42.50;;;;;;5013890;28;20549;-64
2022/01/24 04:00:29;;;;;;;3.70;3.40;;;15.20;41.60;;;;;;5013532;28;20216;-64
2022/01/24 04:02:57;;;;;;;3.30;3.03;;;15.30;41.70;;;;;;5013713;28;20219;-64
2022/01/24 04:05:24;;;;;;;4.15;3.30;;;15.20;41.60;;;;;;5013785;28;20262;-64
2022/01/24 04:07:52;;;;;;;3.25;3.00;;;15.20;41.50;;;;;;5014023;28;20203;-64
2022/01/24 04:10:20;;;;;;;3.10;2.90;;;15.20;41.80;;;;;;5015035;28;20243;-64
2022/01/24 04:12:50;;;;;;;3.03;2.83;;;15.20;41.70;;;;;;5014663;28;20212;-64
2022/01/24 04:18:30;;;;;;;3.67;3.38;;;15.10;41.80;;;;;;5015032;28;20193;-64
2022/01/24 04:23:44;;;;;;;3.88;3.58;;;15.10;41.50;;;;;;5013512;28;20247;-64
2022/01/24 04:26:11;;;;;;;3.22;3.03;;;15.10;41.50;;;;;;5013744;28;20200;-64
2022/01/24 04:28:38;;;;;;;3.95;3.65;;;15.10;42.20;;;;;;5013531;28;20207;-64
2022/01/24 04:31:05;;;;;;;3.75;3.45;;;15.10;41.40;;;;;;5014646;28;20189;-64
2022/01/24 04:33:34;;;;;;;3.70;3.40;;;15.10;41.50;;;;;;5014472;28;20607;-64
2022/01/24 04:36:01;;;;;;;3.78;3.47;;;15.10;41.50;;;;;;5013643;28;20232;-64
2022/01/24 04:38:28;;;;;;;4.57;4.18;;;15.10;41.70;;;;;;5013293;28;20295;-64
2022/01/24 04:40:59;;;;;;;4.07;3.67;;;15.10;41.70;;;;;;5014471;28;20197;-64
2022/01/24 04:43:34;;;;;;;3.35;3.05;;;15.10;41.50;;;;;;5013511;28;20197;-64
2022/01/24 04:46:10;;;;;;;3.80;3.50;;;15.00;41.40;;;;;;5013241;28;20212;-64
2022/01/24 04:51:37;;;;;;;3.97;3.67;;;15.10;41.80;;;;;;5014503;28;20205;-64
2022/01/24 04:56:57;;;;;;;4.10;3.80;;;15.10;41.60;;;;;;5001641;28;20280;-64
2022/01/24 04:59:25;;;;;;;4.22;3.83;;;15.10;41.40;;;;;;5014246;28;20238;-64
2022/01/24 05:01:52;;;;;;;3.97;3.67;;;15.10;41.40;;;;;;5014057;28;20223;-64
2022/01/24 05:04:21;;;;;;;3.60;3.30;;;15.10;41.50;;;;;;5014841;28;20243;-64
2022/01/24 05:06:48;;;;;;;4.18;3.80;;;15.10;41.60;;;;;;5013010;28;20665;-64
2022/01/24 05:09:17;;;;;;;3.45;3.15;;;15.10;41.20;;;;;;5014159;28;20649;-64
2022/01/24 05:11:49;;;;;;;3.47;3.17;;;15.10;41.60;;;;;;5012790;28;20220;-65
2022/01/24 05:25:16;;;;;;;3.63;3.33;;;15.30;42.00;;;;;;5013803;28;20173;-64
2022/01/24 05:27:43;;;;;;;3.83;3.33;;;15.40;42.00;;;;;;5012644;28;20200;-65
2022/01/24 05:30:12;;;;;;;3.72;3.03;;;15.40;42.40;;;;;;5012444;28;20200;-64
2022/01/24 05:32:39;;;;;;;3.55;3.25;;;15.40;42.70;;;;;;5012224;28;20299;-63
2022/01/24 05:35:08;;;;;;;3.65;3.03;;;15.50;42.20;;;;;;5013434;28;20204;-64
2022/01/24 05:37:35;;;;;;;3.47;2.78;;;15.50;42.20;;;;;;5011987;28;20251;-64
2022/01/24 05:40:02;;;;;;;3.42;3.22;;;15.50;41.60;;;;;;5013726;28;20209;-64
2022/01/24 05:42:29;;;;;;;3.20;3.00;;;15.50;42.00;;;;;;5011975;28;20220;-65
2022/01/24 05:44:58;;;;;;;4.88;3.15;;;15.60;41.40;;;;;;5013119;28;20224;-65
2022/01/24 05:47:25;;;;;;;3.47;3.17;;;15.60;41.50;;;;;;5012968;28;20196;-65
2022/01/24 05:49:52;;;;;;;2.88;2.67;;;15.60;41.40;;;;;;5013296;28;20239;-63
2022/01/24 05:52:20;;;;;;;3.55;2.90;;;15.70;41.40;;;;;;5011992;28;20308;-64
2022/01/24 05:54:48;;;;;;;3.60;3.30;;;15.70;41.30;;;;;;5013265;28;20193;-64
2022/01/24 05:57:15;;;;;;;3.05;2.75;;;15.70;41.70;;;;;;5011815;28;20652;-65
2022/01/24 05:59:43;;;;;;;2.90;2.70;;;15.80;41.20;;;;;;5011886;28;20259;-64
2022/01/24 06:02:10;;;;;;;3.47;3.17;;;15.80;41.20;;;;;;5011702;28;20221;-65
2022/01/24 06:04:37;;;;;;;3.50;3.20;;;15.80;41.20;;;;;;5013060;28;20193;-64
2022/01/24 06:07:04;;;;;;;3.28;3.00;;;15.80;40.90;;;;;;5012932;28;20736;-64
2022/01/24 06:09:33;;;;;;;3.08;2.88;;;15.80;40.90;;;;;;5012779;28;20215;-64
2022/01/24 06:12:00;;;;;;;3.90;3.50;;;15.80;41.00;;;;;;5011422;28;20338;-64
2022/01/24 06:14:27;;;;;;;3.60;3.30;;;15.80;41.00;;;;;;5012915;28;20272;-64
2022/01/24 06:16:54;;;;;;;3.65;3.35;;;15.80;40.80;;;;;;5013091;28;20188;-64
2022/01/24 06:19:21;;;;;;;3.47;3.17;;;15.80;40.90;;;;;;5012767;28;20758;-64
2022/01/24 06:21:48;;;;;;;3.08;2.88;;;15.80;40.90;;;;;;5011317;28;20219;-64
2022/01/24 06:24:15;;;;;;;3.35;3.05;;;15.80;40.90;;;;;;5012797;28;20256;-64
2022/01/24 06:26:44;;;;;;;3.65;3.35;;;15.80;40.80;;;;;;5012452;28;20202;-64
2022/01/24 06:29:11;;;;;;;3.47;3.17;;;15.80;40.70;;;;;;5011500;28;20206;-64
2022/01/24 06:31:39;;;;;;;3.22;2.92;;;15.80;40.60;;;;;;5012301;28;20251;-64
2022/01/24 06:34:06;;;;;;;3.20;3.00;;;15.80;41.70;;;;;;5012447;28;20189;-64
2022/01/24 06:36:33;;;;;;;5.05;3.10;;;15.90;40.80;;;;;;5011372;28;20216;-64
2022/01/24 06:39:01;;;;;;;4.22;3.22;;;15.90;40.80;;;;;;5012289;28;20196;-64
2022/01/24 06:41:32;;;;;;;3.75;3.35;;;15.90;40.50;;;;;;5012764;28;20209;-64
2022/01/24 06:44:01;;;;;;;3.70;3.40;;;15.90;40.70;;;;;;5011082;28;20231;-64
2022/01/24 06:46:28;;;;;;;3.95;3.65;;;15.90;40.60;;;;;;5011006;28;20228;-64
2022/01/24 06:48:55;;;;;;;3.92;3.50;;;15.90;40.60;;;;;;5011020;28;20216;-64
2022/01/24 06:51:22;;;;;;;2.95;2.75;;;15.90;40.70;;;;;;5011261;28;20324;-64
2022/01/24 06:53:49;;;;;;;3.20;3.00;;;15.90;40.60;;;;;;5012679;28;20275;-65
2022/01/24 06:56:16;;;;;;;3.53;3.22;;;15.90;40.60;;;;;;5010887;28;20300;-64
2022/01/24 06:58:43;;;;;;;3.78;3.47;;;15.90;40.60;;;;;;5013381;28;20250;-64
2022/01/24 07:01:12;;;;;;;3.38;3.15;;;16.00;40.70;;;;;;5015891;28;20288;-64
2022/01/24 07:03:39;;;;;;;3.60;3.30;;;16.00;40.60;;;;;;5014680;28;20708;-64
2022/01/24 07:06:06;;;;;;;3.20;3.00;;;16.00;40.40;;;;;;5014812;28;20204;-64
2022/01/24 07:08:58;;;;;;;3.42;3.17;;;16.00;40.50;;;;;;5016386;28;20666;-64
2022/01/24 07:11:25;;;;;;;3.50;3.20;;;16.00;40.60;;;;;;5014653;28;20262;-65
2022/01/24 07:13:53;;;;;;;3.53;3.22;;;16.10;41.00;;;;;;5016026;28;20192;-64
2022/01/24 07:16:21;;;;;;;3.95;3.40;;;16.10;40.50;;;;;;5015904;28;20196;-65
2022/01/24 07:19:03;;;;;;;2.75;2.55;;;16.10;40.50;;;;;;5016016;28;20243;-64
2022/01/24 07:21:30;;;;;;;3.22;3.03;;;16.10;40.50;;;;;;5015704;28;20220;-64
2022/01/24 07:23:57;;;;;;;3.25;3.05;;;16.10;40.60;;;;;;5015843;28;20239;-64
2022/01/24 07:26:24;;;;;;;3.92;3.53;;;16.10;40.20;;;;;;5015565;28;20223;-64
2022/01/24 07:28:51;;;;;;;3.63;3.33;;;16.20;40.10;;;;;;5014198;28;20193;-64
2022/01/24 07:31:18;;;;;;;3.63;3.33;;;16.20;40.40;;;;;;5013991;28;20617;-64
2022/01/24 07:33:48;;;;;;;6.43;3.78;;;16.20;40.30;;;;;;5015385;28;20735;-64
2022/01/24 07:36:15;;;;;;;4.78;3.33;;;16.30;39.90;;;;;;5015455;28;20193;-64
2022/01/24 07:38:42;;;;;;;3.75;3.40;;;16.30;40.10;;;;;;5015382;28;20220;-64
2022/01/24 07:41:09;;;;;;;3.55;3.25;;;16.30;39.90;;;;;;5015030;28;20552;-64
2022/01/24 07:43:37;;;;;;;4.13;3.72;;;16.30;40.00;;;;;;5015095;28;20665;-64
2022/01/24 07:46:04;;;;;;;3.35;3.05;;;16.30;39.70;;;;;;5014023;28;20205;-64
2022/01/24 07:48:31;;;;;;;3.70;3.40;;;16.30;39.90;;;;;;5015141;28;20661;-64
2022/01/24 07:50:59;;;;;;;3.38;3.08;;;16.40;39.80;;;;;;5013627;28;20197;-64
2022/01/24 07:53:26;;;;;;;3.60;3.30;;;16.40;39.90;;;;;;5015073;28;20224;-64
2022/01/24 07:55:54;;;;;;;3.63;3.33;;;16.40;39.80;;;;;;5014912;28;20649;-64
2022/01/24 07:58:21;;;;;;;3.45;3.15;;;16.40;39.90;;;;;;5014939;28;20735;-64
2022/01/24 08:00:48;;;;;;;3.20;2.90;;;16.40;39.80;;;;;;5013775;28;20223;-64
2022/01/24 08:03:15;;;;;;;3.85;3.35;;;16.50;39.70;;;;;;5013615;28;20236;-64
2022/01/24 08:05:43;;;;;;;4.28;3.88;;;16.50;39.80;;;;;;5014932;28;20197;-64
2022/01/24 08:08:12;;;;;;;3.47;3.08;;;16.50;39.80;;;;;;5013353;28;20197;-65
2022/01/24 08:10:39;;;;;;;3.33;3.00;;;16.50;39.90;;;;;;5014889;28;20653;-64
2022/01/24 08:13:06;;;;;;;4.05;3.58;;;16.50;39.80;;;;;;5013654;28;20216;-64
2022/01/24 08:15:33;;;;;;;3.45;3.15;;;16.50;39.70;;;;;;5013713;28;20223;-64
2022/01/24 08:18:25;;;;;;;4.88;3.92;;;16.50;39.70;;;;;;5014959;28;20692;-65
2022/01/24 08:20:52;;;;;;;3.75;3.45;;;16.50;39.60;;;;;;5014853;28;20211;-64
2022/01/24 08:23:21;;;;;;;3.67;3.38;;;16.60;40.40;;;;;;5013665;28;20267;-64
2022/01/24 08:25:48;;;;;;;4.13;3.83;;;16.60;39.90;;;;;;5013515;28;20204;-64
2022/01/24 08:28:15;;;;;;;3.95;3.60;;;16.60;39.60;;;;;;5014630;28;20240;-64
2022/01/24 08:30:43;;;;;;;4.22;3.92;;;16.60;39.60;;;;;;5013104;28;20599;-65
2022/01/24 08:33:10;;;;;;;4.40;3.92;;;16.60;39.70;;;;;;5014438;28;20227;-64
2022/01/24 08:35:37;;;;;;;4.35;3.95;;;16.70;39.70;;;;;;5012987;28;20197;-64
2022/01/24 08:38:05;;;;;;;4.82;4.38;;;16.70;39.60;;;;;;5014259;28;20271;-65
2022/01/24 08:40:35;;;;;;;4.25;3.85;;;16.60;39.50;;;;;;5012974;28;20225;-64
2022/01/24 08:43:05;;;;;;;4.32;4.00;;;16.70;39.50;;;;;;5012786;28;20724;-64
2022/01/24 08:45:58;;;;;;;3.90;3.60;;;16.70;39.50;;;;;;5014158;28;20302;-64
2022/01/24 08:48:25;;;;;;;3.80;3.50;;;16.70;39.50;;;;;;5012655;28;20199;-64
2022/01/24 08:50:55;;;;;;;4.28;3.65;;;16.70;39.70;;;;;;5014019;28;20704;-64
2022/01/24 08:53:23;;;;;;;4.55;4.15;;;16.70;39.50;;;;;;5012472;28;20197;-64
2022/01/24 08:55:51;;;;;;;3.75;3.45;;;16.80;39.60;;;;;;5013860;28;20683;-64
2022/01/24 08:58:19;;;;;;;4.32;3.92;;;16.80;39.60;;;;;;5012714;28;20280;-64
2022/01/24 09:00:46;;;;;;;4.25;3.90;;;16.80;40.10;;;;;;5012555;28;20278;-64
2022/01/24 09:03:14;;;;;;;4.30;3.75;;;16.90;39.50;;;;;;5012266;28;20244;-65
2022/01/24 09:05:41;;;;;;;4.05;3.75;;;16.90;39.40;;;;;;5013759;28;20699;-65
2022/01/24 09:08:09;;;;;;;4.13;3.83;;;16.90;39.30;;;;;;5012154;28;20207;-63
2022/01/24 09:10:38;;;;;;;4.25;3.85;;;17.00;39.30;;;;;;5013742;28;20189;-64
2022/01/24 09:13:06;;;;;;;4.35;3.97;;;17.00;39.20;;;;;;5013606;28;20701;-65
2022/01/24 09:15:33;;;;;;;4.55;4.20;;;17.00;39.10;;;;;;5012344;28;20583;-64
2022/01/24 09:18:01;;;;;;;4.40;4.00;;;17.00;38.90;;;;;;5013524;28;20287;-64
2022/01/24 09:20:28;;;;;;;4.20;3.90;;;17.10;39.10;;;;;;5011338;28;20731;-64
2022/01/24 09:22:55;;;;;;;4.97;4.47;;;17.00;38.90;;;;;;5013274;28;20212;-65
2022/01/24 09:25:22;;;;;;;5.32;4.10;;;17.10;38.90;;;;;;5011975;28;20259;-65
2022/01/24 09:27:49;;;;;;;4.35;3.95;;;17.10;38.90;;;;;;5012137;28;20216;-64
2022/01/24 09:30:19;;;;;;;5.53;5.03;;;17.10;38.90;;;;;;5012180;28;20265;-64
2022/01/24 09:32:46;;;;;;;5.03;4.53;;;17.10;39.00;;;;;;5013339;28;20256;-64
2022/01/24 09:35:13;;;;;;;4.88;4.10;;;17.10;38.80;;;;;;5011873;28;20254;-65
2022/01/24 09:37:41;;;;;;;4.03;3.72;;;17.10;39.00;;;;;;5013389;28;20223;-64
2022/01/24 09:40:08;;;;;;;5.18;4.22;;;17.10;38.90;;;;;;5012992;28;20229;-65
2022/01/24 09:42:36;;;;;;;4.35;3.95;;;17.20;39.00;;;;;;5013193;28;20240;-65
2022/01/24 09:45:03;;;;;;;4.20;3.80;;;17.10;38.90;;;;;;5013222;28;20228;-64
2022/01/24 09:47:32;;;;;;;4.57;4.18;;;17.20;39.00;;;;;;5012970;28;20192;-64
2022/01/24 09:49:59;;;;;;;4.57;4.15;;;17.20;39.30;;;;;;5012992;28;20196;-65
2022/01/24 09:52:26;;;;;;;5.00;4.60;;;17.20;38.90;;;;;;5012918;28;20629;-64
2022/01/24 09:54:53;;;;;;;3.85;3.55;;;17.20;38.80;;;;;;5012840;28;20192;-64
2022/01/24 09:57:21;;;;;;;4.15;3.78;;;17.20;38.80;;;;;;5011491;28;20197;-64
2022/01/24 09:59:49;;;;;;;3.95;3.65;;;17.20;38.70;;;;;;5012817;28;20193;-65
2022/01/24 10:02:16;;;;;;;4.10;3.75;;;17.20;38.80;;;;;;5011441;28;20575;-64
2022/01/24 10:04:45;;;;;;;3.60;3.40;;;17.30;38.70;;;;;;5012751;28;20193;-64
2022/01/24 10:07:12;;;;;;;3.40;3.10;;;17.20;38.60;;;;;;5011464;28;20199;-64
2022/01/24 10:09:41;;;;;;;3.72;3.42;;;17.20;38.60;;;;;;5012589;28;20220;-64
2022/01/24 10:12:34;;;;;;;3.45;3.15;;;17.20;39.00;;;;;;5012794;28;20299;-64
2022/01/24 10:17:48;;;;;;;3.38;3.13;;;17.30;38.30;;;;;;5012706;28;20197;-64
2022/01/24 10:20:22;;;;;;;3.75;3.45;;;17.30;38.40;;;;;;5012678;28;20200;-64
2022/01/24 10:23:08;;;;;;;3.80;3.50;;;17.30;39.00;;;;;;5025771;23;20282;-69
2022/01/24 10:25:46;;;;;;;3.60;3.30;;;17.30;38.20;;;;;;5013686;28;20247;-71
2022/01/24 10:28:14;;;;;;;3.50;3.22;;;17.30;38.20;;;;;;5014989;28;20177;-71
2022/01/24 10:30:41;;;;;;;3.47;2.90;;;17.30;38.30;;;;;;5013594;28;20196;-70
2022/01/24 10:33:09;;;;;;;3.20;3.00;;;17.40;38.60;;;;;;5016650;28;20646;-71
2022/01/24 10:35:40;;;;;;;3.50;3.20;;;17.40;38.30;;;;;;5017340;28;20203;-70
2022/01/24 10:38:26;;;;;;;3.47;3.20;;;17.40;38.40;;;;;;5017489;28;20203;-70
2022/01/24 10:41:06;;;;;;;3.53;3.22;;;17.40;38.40;;;;;;5016831;28;20739;-70
2022/01/24 10:43:33;;;;;;;2.95;2.75;;;17.40;38.40;;;;;;5016776;28;20640;-70
2022/01/24 10:46:01;;;;;;;3.55;3.35;;;17.40;38.40;;;;;;5016865;28;20205;-72
2022/01/24 10:48:30;;;;;;;3.50;3.20;;;17.40;38.40;;;;;;5017861;28;20208;-70
2022/01/24 10:51:07;;;;;;;3.25;2.90;;;17.40;38.30;;;;;;5016002;28;20199;-70
2022/01/24 10:53:39;;;;;;;3.42;3.10;;;17.40;38.30;;;;;;5016643;28;20220;-72
2022/01/24 10:56:29;;;;;;;3.17;2.97;;;17.40;38.20;;;;;;5016838;28;20291;-72
2022/01/24 10:59:01;;;;;;;3.75;2.95;;;17.40;38.40;;;;;;5018375;28;20278;-71
2022/01/24 11:01:28;;;;;;;3.53;3.17;;;17.40;38.20;;;;;;5016506;28;20252;-70
2022/01/24 11:03:59;;;;;;;2.97;2.78;;;17.40;38.30;;;;;;5016464;28;20213;-70
2022/01/24 11:06:29;;;;;;;3.42;3.13;;;17.40;38.10;;;;;;5016349;28;20229;-70
2022/01/24 11:09:18;;;;;;;3.10;2.88;;;17.50;38.30;;;;;;5018098;28;20195;-70
2022/01/24 11:11:46;;;;;;;3.33;3.03;;;17.40;38.20;;;;;;5017576;28;20227;-70
2022/01/24 11:14:16;;;;;;;3.10;2.88;;;17.50;38.20;;;;;;5016318;28;20328;-71
2022/01/24 11:16:43;;;;;;;3.47;3.17;;;17.50;38.20;;;;;;5016253;28;20197;-72
2022/01/24 11:19:16;;;;;;;3.15;2.85;;;17.50;38.00;;;;;;5015680;28;20232;-70
2022/01/24 11:21:45;;;;;;;3.15;2.85;;;17.50;38.00;;;;;;5016050;28;20302;-70
2022/01/24 11:24:17;;;;;;;2.78;2.58;;;17.60;38.10;;;;;;5016865;28;20255;-70
2022/01/24 11:26:44;;;;;;;2.60;2.40;;;17.60;38.30;;;;;;5015594;28;20227;-72
2022/01/24 11:29:11;;;;;;;2.63;2.42;;;17.60;38.30;;;;;;5016763;28;20193;-70
2022/01/24 11:31:41;;;;;;;3.22;2.85;;;17.60;38.00;;;;;;5015162;28;20196;-70
2022/01/24 11:34:12;;;;;;;3.13;2.85;;;17.60;38.20;;;;;;5016072;28;20212;-71
2022/01/24 11:36:41;;;;;;;3.00;2.80;;;17.70;38.30;;;;;;5015300;28;20213;-69
2022/01/24 11:39:09;;;;;;;3.47;2.58;;;17.70;38.20;;;;;;5015463;28;20216;-70
2022/01/24 11:41:39;;;;;;;2.83;2.60;;;17.80;38.20;;;;;;5015859;28;20263;-71
2022/01/24 11:44:11;;;;;;;3.42;2.50;;;17.80;38.10;;;;;;5015330;28;20579;-70
2022/01/24 11:46:45;;;;;;;2.90;2.60;;;17.80;38.20;;;;;;5021334;28;20237;-71
2022/01/24 11:49:14;;;;;;;2.50;2.30;;;17.80;38.10;;;;;;5021906;28;20193;-70
2022/01/24 11:51:41;;;;;;;2.60;2.40;;;17.90;38.30;;;;;;5021464;28;20652;-72
2022/01/24 11:54:44;;;;;;;2.38;2.28;;;17.90;37.80;;;;;;5015619;28;20246;-72
2022/01/24 11:57:23;;;;;;;2.85;2.60;;;17.90;38.00;;;;;;5019372;28;20215;-68
2022/01/24 11:59:51;;;;;;;2.60;2.40;;;17.90;37.90;;;;;;5016373;28;20656;-70
2022/01/24 12:02:21;;;;;;;2.30;2.10;;;18.00;37.90;;;;;;5015831;28;20222;-72
2022/01/24 12:04:59;;;;;;;2.80;2.60;;;18.00;37.70;;;;;;5014743;28;20705;-71
2022/01/24 12:07:27;;;;;;;2.70;2.50;;;18.10;37.80;;;;;;5014725;28;20211;-71
2022/01/24 12:09:57;;;;;;;2.50;2.38;;;18.10;37.80;;;;;;5014095;28;20292;-70
2022/01/24 12:12:41;;;;;;;2.47;2.28;;;18.10;37.70;;;;;;5015298;28;20193;-69
2022/01/24 12:15:08;;;;;;;2.88;2.30;;;18.20;37.90;;;;;;5014355;28;20287;-71
2022/01/24 12:17:46;;;;;;;2.70;2.50;;;18.20;37.60;;;;;;5015146;28;20584;-70
2022/01/24 12:20:46;;;;;;;2.35;2.20;;;18.30;37.60;;;;;;5014560;28;20656;-71
2022/01/24 12:23:39;;;;;;;2.38;2.20;;;18.30;37.50;;;;;;4977252;28;20545;-70
2022/01/24 12:26:09;;;;;;;2.60;2.40;;;18.40;37.60;;;;;;5013244;28;20193;-69
2022/01/24 12:28:47;;;;;;;2.67;2.47;;;18.40;37.60;;;;;;5014150;28;20203;-71
2022/01/24 12:31:20;;;;;;;2.50;2.30;;;18.40;37.40;;;;;;5015332;28;20670;-72
2022/01/24 12:33:57;;;;;;;2.58;2.38;;;18.40;37.60;;;;;;5014809;28;20215;-72
2022/01/24 12:36:48;;;;;;;2.30;2.15;;;18.50;37.60;;;;;;5013674;28;20214;-70
2022/01/24 12:39:16;;;;;;;2.42;2.22;;;18.50;37.60;;;;;;5013733;28;20603;-71
2022/01/24 12:41:47;;;;;;;2.42;2.22;;;18.50;37.50;;;;;;5013280;28;20711;-70
2022/01/24 12:46:56;;;;;;;2.38;2.17;;;18.60;37.50;;;;;;5014538;28;20200;-69
2022/01/24 12:49:23;;;;;;;2.28;2.08;;;18.60;37.50;;;;;;5015106;28;20185;-71
2022/01/24 12:51:49;;;;;;;2.20;2.10;;;18.60;37.50;;;;;;5014069;28;20200;-69
2022/01/24 12:54:17;;;;;;;2.33;2.22;;;18.70;37.40;;;;;;5013651;28;20657;-70
2022/01/24 12:56:45;;;;;;;2.65;2.30;;;18.70;37.20;;;;;;5013973;28;20239;-72
2022/01/24 12:59:14;;;;;;;2.97;2.47;;;18.70;37.20;;;;;;5015208;28;20197;-71
2022/01/24 13:01:41;;;;;;;2.60;2.40;;;18.70;37.20;;;;;;5014055;28;20615;-70
2022/01/24 13:04:10;;;;;;;2.33;2.13;;;18.80;37.40;;;;;;5013494;28;20279;-69
2022/01/24 13:06:39;;;;;;;2.40;2.20;;;18.80;37.40;;;;;;5013631;28;20211;-70
2022/01/24 13:09:13;;;;;;;2.13;2.00;;;18.80;37.40;;;;;;5014992;28;20196;-71
2022/01/24 13:11:46;;;;;;;2.58;2.28;;;18.80;37.40;;;;;;5014661;28;20177;-69
2022/01/24 13:14:16;;;;;;;2.47;2.30;;;18.80;37.40;;;;;;5014360;28;20775;-69
2022/01/24 13:22:19;;;;;;;2.60;2.28;;;18.80;37.30;;;;;;5014682;28;20226;-71
2022/01/24 13:25:10;;;;;;;2.30;2.13;;;18.80;37.40;;;;;;5014657;28;20213;-71
2022/01/24 13:27:40;;;;;;;2.10;1.90;;;18.80;37.30;;;;;;5013146;28;20675;-72
2022/01/24 13:30:09;;;;;;;2.58;2.20;;;18.80;37.40;;;;;;5014483;28;20204;-71
2022/01/24 13:32:50;;;;;;;2.33;2.05;;;18.90;37.50;;;;;;5013142;28;20197;-71
2022/01/24 13:35:25;;;;;;;2.42;2.22;;;18.90;37.70;;;;;;5012893;28;20204;-70
2022/01/24 13:37:55;;;;;;;2.40;2.20;;;18.90;37.40;;;;;;5012762;28;20272;-72
2022/01/24 13:40:36;;;;;;;2.38;2.17;;;18.90;37.40;;;;;;5012693;28;20212;-71
2022/01/24 13:43:05;;;;;;;2.47;2.28;;;19.00;37.60;;;;;;5013959;28;20263;-72
2022/01/24 13:45:34;;;;;;;2.25;2.10;;;18.90;37.50;;;;;;5012588;28;20315;-71
2022/01/24 13:48:02;;;;;;;2.70;2.17;;;19.00;37.70;;;;;;5012523;28;20196;-70
2022/01/24 13:50:29;;;;;;;2.20;2.00;;;19.00;37.60;;;;;;5012814;28;20578;-70
2022/01/24 13:52:57;;;;;;;2.35;2.15;;;19.00;37.60;;;;;;5013896;28;20566;-72
2022/01/24 13:55:25;;;;;;;2.50;2.20;;;19.00;37.70;;;;;;5014022;28;20195;-73
2022/01/24 13:57:52;;;;;;;2.40;2.20;;;19.00;37.60;;;;;;5012358;28;20299;-69
2022/01/24 14:00:24;;;;;;;2.38;2.13;;;19.00;37.70;;;;;;5012730;28;20209;-70
2022/01/24 14:03:05;;;;;;;2.50;2.30;;;19.00;37.80;;;;;;5014082;28;20247;-70
2022/01/24 14:05:32;;;;;;;3.25;2.30;;;19.00;37.70;;;;;;5013026;28;20195;-70
2022/01/24 14:08:14;;;;;;;2.00;1.90;;;19.00;37.60;;;;;;5012870;28;20205;-72
2022/01/24 14:10:41;;;;;;;2.08;1.88;;;19.00;37.70;;;;;;5016597;28;20188;-71
2022/01/24 14:13:09;;;;;;;2.33;2.20;;;19.00;37.90;;;;;;5025795;28;20271;-70
2022/01/24 14:15:46;;;;;;;2.20;2.10;;;19.00;37.50;;;;;;5025163;28;20203;-70
2022/01/24 14:18:28;;;;;;;2.75;2.30;;;19.00;37.60;;;;;;5017028;28;20224;-71
2022/01/24 14:20:56;;;;;;;2.20;2.10;;;19.00;37.60;;;;;;5014492;28;20181;-72
2022/01/24 14:23:25;;;;;;;2.20;2.05;;;18.90;38.30;;;;;;5012637;28;20692;-71
2022/01/24 14:25:52;;;;;;;2.20;2.10;;;18.90;37.90;;;;;;5012855;28;20201;-69
2022/01/24 14:28:22;;;;;;;2.35;2.22;;;18.90;37.80;;;;;;5013082;28;20188;-70
2022/01/24 14:30:51;;;;;;;2.40;2.20;;;18.90;37.80;;;;;;5012789;28;20196;-71